Time;durP1;ratioP1;P1;durP2;ratioP2;P2;SDS_P1;SDS_P2;PMS_P1;PMS_P2;Temp;Humidity;BMP_temperature;BMP_pressure;BME280_temperature;BME280_humidity;BME280_pressure;Samples;Min_cycle;Max_cycle;Signal;HPM_P1;HPM_P2
2022/04/23 00:02:21;;;;;;;21.27;3.97;;;;;;;;;;4994170;28;20520;-80
2022/04/23 00:04:48;;;;;;;14.18;3.13;;;;;;;;;;4993895;28;20355;-80
2022/04/23 00:07:14;;;;;;;19.65;3.80;;;;;;;;;;4993972;28;20014;-80
2022/04/23 00:09:40;;;;;;;21.42;4.10;;;;;;;;;;4994032;28;20038;-80
2022/04/23 00:12:06;;;;;;;18.67;2.90;;;;;;;;;;4994119;28;20026;-80
2022/04/23 00:14:33;;;;;;;16.35;4.03;;;;;;;;;;4994127;28;20097;-81
2022/04/23 00:17:00;;;;;;;13.32;3.00;;;;;;;;;;4992564;28;20105;-80
2022/04/23 00:19:26;;;;;;;16.70;3.75;;;;;;;;;;4993988;28;20027;-80
2022/04/23 00:21:52;;;;;;;16.15;3.00;;;;;;;;;;4992932;28;20032;-78
2022/04/23 00:24:18;;;;;;;22.73;4.13;;;;;;;;;;4993995;28;20050;-80
2022/04/23 00:26:45;;;;;;;21.52;3.83;;;;;;;;;;4992712;28;20048;-81
2022/04/23 00:29:11;;;;;;;14.35;3.83;;;;;;;;;;4993803;28;20033;-80
2022/04/23 00:31:37;;;;;;;17.55;3.30;;;;;;;;;;4993623;28;20022;-80
2022/04/23 00:34:03;;;;;;;13.18;3.80;;;;;;;;;;4993919;28;20026;-80
2022/04/23 00:36:29;;;;;;;13.02;3.10;;;;;;;;;;4993439;28;20050;-80
2022/04/23 00:38:56;;;;;;;25.83;4.13;;;;;;;;;;4993544;28;20101;-81
2022/04/23 00:44:07;;;;;;;12.63;2.95;;;;;;;;;;4988593;28;20053;-80
2022/04/23 00:46:34;;;;;;;19.90;3.70;;;;;;;;;;4993012;28;20030;-80
2022/04/23 00:49:00;;;;;;;19.45;3.80;;;;;;;;;;4993272;28;20109;-79
2022/04/23 00:51:27;;;;;;;17.63;3.63;;;;;;;;;;4993583;28;20092;-80
2022/04/23 00:53:53;;;;;;;16.85;4.03;;;;;;;;;;4993385;28;20398;-79
2022/04/23 00:56:20;;;;;;;29.02;4.55;;;;;;;;;;4993326;28;20110;-79
2022/04/23 00:58:47;;;;;;;15.45;4.07;;;;;;;;;;4992793;28;20037;-79
2022/04/23 01:01:14;;;;;;;18.27;4.03;;;;;;;;;;4993489;28;20397;-79
2022/04/23 01:03:42;;;;;;;14.55;3.33;;;;;;;;;;4993813;28;20145;-79
2022/04/23 01:06:12;;;;;;;27.98;3.55;;;;;;;;;;4993557;28;20050;-80
2022/04/23 01:08:38;;;;;;;15.13;3.78;;;;;;;;;;4993299;28;20510;-79
2022/04/23 01:11:05;;;;;;;21.98;4.00;;;;;;;;;;4993166;28;20022;-79
2022/04/23 01:13:32;;;;;;;19.65;3.63;;;;;;;;;;4993462;28;20031;-80
2022/04/23 01:16:05;;;;;;;14.35;4.00;;;;;;;;;;4992605;28;20022;-79
2022/04/23 01:18:31;;;;;;;13.95;3.45;;;;;;;;;;4993342;28;20033;-79
2022/04/23 01:21:01;;;;;;;17.30;3.63;;;;;;;;;;4993191;28;20022;-79
2022/04/23 01:23:29;;;;;;;20.70;4.20;;;;;;;;;;4993622;28;20038;-79
2022/04/23 01:25:55;;;;;;;19.70;3.28;;;;;;;;;;4993108;28;20023;-78
2022/04/23 01:28:22;;;;;;;17.50;3.35;;;;;;;;;;4993082;28;20077;-79
2022/04/23 01:30:49;;;;;;;15.80;3.83;;;;;;;;;;4992932;28;20036;-79
2022/04/23 01:33:15;;;;;;;18.50;3.92;;;;;;;;;;4978800;28;20030;-80
2022/04/23 01:35:41;;;;;;;11.43;3.00;;;;;;;;;;4977591;28;20074;-80
2022/04/23 01:38:07;;;;;;;20.67;3.58;;;;;;;;;;4977447;28;20033;-80
2022/04/23 01:40:33;;;;;;;20.67;3.53;;;;;;;;;;4977996;28;20109;-79
2022/04/23 01:42:59;;;;;;;20.52;3.40;;;;;;;;;;4977279;28;20031;-80
2022/04/23 01:45:25;;;;;;;12.82;3.33;;;;;;;;;;4977517;28;20110;-79
2022/04/23 01:47:51;;;;;;;25.23;4.07;;;;;;;;;;4976271;28;20027;-80
2022/04/23 01:50:17;;;;;;;18.50;3.67;;;;;;;;;;4977263;28;20031;-80
2022/04/23 01:52:43;;;;;;;18.45;3.70;;;;;;;;;;4977743;28;20023;-79
2022/04/23 01:55:10;;;;;;;20.08;3.83;;;;;;;;;;4977211;28;20109;-80
2022/04/23 01:57:36;;;;;;;19.02;3.65;;;;;;;;;;4977065;28;20034;-79
2022/04/23 02:00:04;;;;;;;16.38;4.10;;;;;;;;;;4977200;28;20035;-79
2022/04/23 02:02:30;;;;;;;17.15;4.22;;;;;;;;;;4975972;28;20602;-79
2022/04/23 02:04:56;;;;;;;11.57;3.70;;;;;;;;;;4975747;28;20125;-79
2022/04/23 02:07:22;;;;;;;13.88;3.90;;;;;;;;;;4977229;28;20027;-79
2022/04/23 02:09:48;;;;;;;20.45;4.07;;;;;;;;;;4977000;28;20463;-80
2022/04/23 02:12:15;;;;;;;13.27;3.25;;;;;;;;;;4976800;28;20106;-80
2022/04/23 02:14:41;;;;;;;18.95;3.80;;;;;;;;;;4994356;28;20110;-80
2022/04/23 02:17:09;;;;;;;13.02;3.28;;;;;;;;;;4996362;28;20057;-80
2022/04/23 02:19:35;;;;;;;16.70;3.10;;;;;;;;;;4996309;28;20073;-80
2022/04/23 02:22:01;;;;;;;16.73;3.40;;;;;;;;;;4996268;28;20473;-80
2022/04/23 02:24:27;;;;;;;14.63;3.38;;;;;;;;;;4996316;28;20034;-80
2022/04/23 02:26:53;;;;;;;15.63;3.50;;;;;;;;;;4995754;28;20026;-79
2022/04/23 02:29:19;;;;;;;23.23;4.05;;;;;;;;;;4996076;28;20030;-80
2022/04/23 02:31:45;;;;;;;12.30;3.42;;;;;;;;;;4995058;28;20098;-80
2022/04/23 02:34:11;;;;;;;10.40;2.88;;;;;;;;;;4994807;28;20506;-80
2022/04/23 02:36:38;;;;;;;14.02;3.38;;;;;;;;;;4995789;28;20121;-80
2022/04/23 02:39:04;;;;;;;15.85;3.28;;;;;;;;;;4995869;28;20106;-80
2022/04/23 02:41:30;;;;;;;11.07;2.47;;;;;;;;;;4995419;28;20118;-78
2022/04/23 02:43:57;;;;;;;19.02;2.90;;;;;;;;;;4995387;28;20042;-80
2022/04/23 02:46:24;;;;;;;14.60;4.72;;;;;;;;;;4995703;28;20019;-77
2022/04/23 02:48:50;;;;;;;16.73;3.10;;;;;;;;;;4994982;28;20038;-81
2022/04/23 02:51:16;;;;;;;17.27;3.22;;;;;;;;;;4994918;28;20022;-81
2022/04/23 02:53:45;;;;;;;9.13;2.83;;;;;;;;;;4995136;28;20026;-80
2022/04/23 02:56:13;;;;;;;12.93;3.28;;;;;;;;;;4994677;28;20146;-79
2022/04/23 02:58:40;;;;;;;13.52;3.65;;;;;;;;;;4995689;28;20426;-80
2022/04/23 03:01:09;;;;;;;12.40;3.75;;;;;;;;;;4995559;28;20490;-78
2022/04/23 03:03:37;;;;;;;16.38;3.03;;;;;;;;;;4995343;28;20026;-80
2022/04/23 03:06:07;;;;;;;16.40;3.15;;;;;;;;;;4994173;28;20060;-79
2022/04/23 03:08:33;;;;;;;14.18;3.20;;;;;;;;;;4995617;28;20034;-80
2022/04/23 03:10:59;;;;;;;14.68;3.47;;;;;;;;;;4994909;28;20030;-80
2022/04/23 03:13:25;;;;;;;17.58;2.80;;;;;;;;;;4995247;28;20037;-79
2022/04/23 03:15:51;;;;;;;13.40;2.83;;;;;;;;;;4995540;28;20019;-80
2022/04/23 03:18:18;;;;;;;13.07;3.15;;;;;;;;;;4995247;28;20023;-80
2022/04/23 03:20:45;;;;;;;14.40;2.95;;;;;;;;;;4995158;28;20049;-80
2022/04/23 03:23:14;;;;;;;13.02;3.47;;;;;;;;;;4994915;28;20030;-78
2022/04/23 03:25:41;;;;;;;22.48;3.72;;;;;;;;;;4995109;28;20378;-78
2022/04/23 03:28:07;;;;;;;18.83;3.15;;;;;;;;;;4995352;28;20394;-80
2022/04/23 03:30:33;;;;;;;13.48;2.85;;;;;;;;;;4995102;28;20033;-80
2022/04/23 03:32:59;;;;;;;9.18;3.13;;;;;;;;;;4995197;28;20422;-79
2022/04/23 03:35:26;;;;;;;11.02;2.80;;;;;;;;;;4994864;28;20474;-80
2022/04/23 03:37:52;;;;;;;10.68;2.90;;;;;;;;;;4994660;28;20053;-79
2022/04/23 03:40:19;;;;;;;14.13;2.47;;;;;;;;;;4993569;28;20031;-80
2022/04/23 03:42:48;;;;;;;18.25;3.95;;;;;;;;;;4994862;28;20080;-80
2022/04/23 03:45:16;;;;;;;18.38;3.55;;;;;;;;;;4983986;28;20030;-80
2022/04/23 03:47:45;;;;;;;16.73;3.45;;;;;;;;;;4974886;28;20033;-80
2022/04/23 03:50:11;;;;;;;13.45;3.30;;;;;;;;;;4975007;28;20077;-80
2022/04/23 03:52:37;;;;;;;10.00;2.95;;;;;;;;;;4974538;28;20497;-80
2022/04/23 03:55:04;;;;;;;19.98;3.55;;;;;;;;;;4974916;28;20023;-79
2022/04/23 03:57:30;;;;;;;13.63;2.75;;;;;;;;;;4974056;28;20109;-80
2022/04/23 03:59:56;;;;;;;15.80;3.58;;;;;;;;;;4975335;28;20041;-80
2022/04/23 04:02:23;;;;;;;15.30;2.88;;;;;;;;;;4974920;28;20038;-80
2022/04/23 04:04:49;;;;;;;9.35;2.58;;;;;;;;;;4991797;28;20026;-79
2022/04/23 04:07:18;;;;;;;13.52;3.25;;;;;;;;;;4993947;28;20375;-80
2022/04/23 04:09:44;;;;;;;14.57;3.10;;;;;;;;;;4994414;28;20508;-80
2022/04/23 04:12:11;;;;;;;16.05;3.00;;;;;;;;;;4992847;28;20046;-80
2022/04/23 04:14:37;;;;;;;15.15;2.97;;;;;;;;;;4994368;28;20026;-79
2022/04/23 04:17:15;;;;;;;11.88;2.90;;;;;;;;;;4993921;28;20097;-80
2022/04/23 04:19:42;;;;;;;13.02;3.25;;;;;;;;;;4994392;28;20026;-80
2022/04/23 04:22:08;;;;;;;13.68;3.15;;;;;;;;;;4993794;28;20030;-80
2022/04/23 04:24:35;;;;;;;21.73;3.85;;;;;;;;;;4994102;28;20105;-80
2022/04/23 04:27:01;;;;;;;16.48;3.25;;;;;;;;;;4994096;28;20057;-79
2022/04/23 04:29:27;;;;;;;14.73;2.97;;;;;;;;;;4993894;28;20084;-81
2022/04/23 04:31:54;;;;;;;13.10;3.50;;;;;;;;;;4993930;28;20027;-80
2022/04/23 04:34:23;;;;;;;11.90;2.88;;;;;;;;;;4976328;28;20085;-80
2022/04/23 04:36:49;;;;;;;12.80;2.97;;;;;;;;;;4993094;28;20050;-80
2022/04/23 04:39:16;;;;;;;13.45;2.83;;;;;;;;;;4992192;28;20069;-80
2022/04/23 04:41:42;;;;;;;15.50;3.58;;;;;;;;;;4994116;28;20064;-80
2022/04/23 04:44:09;;;;;;;15.75;2.97;;;;;;;;;;4993788;28;20036;-80
2022/04/23 04:46:35;;;;;;;16.05;3.60;;;;;;;;;;4992943;28;20090;-80
2022/04/23 04:49:02;;;;;;;12.50;3.05;;;;;;;;;;4993758;28;20026;-79
2022/04/23 04:51:28;;;;;;;15.10;3.10;;;;;;;;;;4992753;28;20618;-80
2022/04/23 04:53:55;;;;;;;14.52;3.35;;;;;;;;;;4993402;28;20030;-79
2022/04/23 04:56:21;;;;;;;12.32;3.97;;;;;;;;;;4993791;28;20030;-79
2022/04/23 04:58:47;;;;;;;20.17;3.38;;;;;;;;;;4993492;28;20022;-79
2022/04/23 05:01:14;;;;;;;11.00;3.20;;;;;;;;;;4993490;28;20022;-79
2022/04/23 05:03:40;;;;;;;17.27;3.38;;;;;;;;;;4993384;28;20029;-79
2022/04/23 05:06:09;;;;;;;15.32;3.50;;;;;;;;;;4993247;28;20034;-79
2022/04/23 05:08:36;;;;;;;12.90;3.75;;;;;;;;;;4993093;28;20037;-80
2022/04/23 05:11:03;;;;;;;13.82;3.55;;;;;;;;;;4993265;28;20026;-79
2022/04/23 05:13:29;;;;;;;15.82;2.70;;;;;;;;;;4993104;28;20057;-79
2022/04/23 05:15:55;;;;;;;14.13;3.22;;;;;;;;;;4991370;28;20038;-80
2022/04/23 05:18:21;;;;;;;15.18;4.07;;;;;;;;;;4993321;28;20026;-80
2022/04/23 05:20:47;;;;;;;19.63;4.18;;;;;;;;;;4993327;28;20034;-79
2022/04/23 05:23:13;;;;;;;18.73;3.70;;;;;;;;;;4992743;28;20054;-80
2022/04/23 05:25:39;;;;;;;18.10;3.67;;;;;;;;;;4992832;28;20422;-80
2022/04/23 05:28:06;;;;;;;14.82;3.90;;;;;;;;;;4992699;28;20026;-80
2022/04/23 05:30:32;;;;;;;17.02;3.85;;;;;;;;;;4993007;28;20496;-80
2022/04/23 05:32:58;;;;;;;14.57;3.85;;;;;;;;;;4993255;28;20022;-80
2022/04/23 05:35:24;;;;;;;18.65;3.47;;;;;;;;;;4992934;28;20080;-80
2022/04/23 05:37:50;;;;;;;15.43;3.38;;;;;;;;;;4992921;28;20054;-79
2022/04/23 05:40:16;;;;;;;21.60;3.63;;;;;;;;;;4992592;28;20037;-79
2022/04/23 05:42:42;;;;;;;22.27;4.20;;;;;;;;;;4992876;28;20036;-79
2022/04/23 05:45:08;;;;;;;13.02;2.63;;;;;;;;;;4993369;28;20026;-79
2022/04/23 05:47:34;;;;;;;16.60;3.97;;;;;;;;;;4993207;28;20065;-79
2022/04/23 05:50:00;;;;;;;22.77;3.75;;;;;;;;;;4992650;28;20034;-79
2022/04/23 05:52:26;;;;;;;13.15;3.70;;;;;;;;;;4993042;28;20049;-80
2022/04/23 05:54:52;;;;;;;19.05;3.80;;;;;;;;;;4992754;28;20378;-80
2022/04/23 05:57:18;;;;;;;19.65;4.45;;;;;;;;;;4992790;28;20545;-80
2022/04/23 05:59:44;;;;;;;21.05;4.68;;;;;;;;;;4992768;28;20389;-80
2022/04/23 06:02:13;;;;;;;24.83;5.40;;;;;;;;;;4992673;28;20034;-79
2022/04/23 06:04:39;;;;;;;28.15;4.95;;;;;;;;;;4992443;28;20030;-80
2022/04/23 06:07:05;;;;;;;24.35;4.15;;;;;;;;;;4992944;28;20080;-80
2022/04/23 06:09:31;;;;;;;20.92;3.63;;;;;;;;;;4992529;28;20034;-80
2022/04/23 06:11:57;;;;;;;15.57;3.97;;;;;;;;;;4992688;28;20663;-80
2022/04/23 06:14:23;;;;;;;22.05;3.72;;;;;;;;;;4992684;28;20127;-79
2022/04/23 06:16:49;;;;;;;17.45;4.00;;;;;;;;;;4992962;28;20080;-80
2022/04/23 06:19:15;;;;;;;20.48;4.30;;;;;;;;;;4992823;28;20118;-80
2022/04/23 06:21:41;;;;;;;27.15;5.38;;;;;;;;;;4996550;28;20065;-80
2022/04/23 06:24:07;;;;;;;20.15;4.20;;;;;;;;;;4996368;28;20478;-79
2022/04/23 06:26:33;;;;;;;18.63;3.83;;;;;;;;;;4985109;28;20034;-79
2022/04/23 06:28:59;;;;;;;29.77;4.43;;;;;;;;;;4976898;28;20042;-80
2022/04/23 06:31:26;;;;;;;24.77;4.20;;;;;;;;;;4976453;28;20034;-80
2022/04/23 06:33:52;;;;;;;22.58;4.15;;;;;;;;;;4976442;28;20031;-80
2022/04/23 06:36:18;;;;;;;16.35;3.63;;;;;;;;;;4976224;28;20043;-80
2022/04/23 06:38:44;;;;;;;17.40;3.75;;;;;;;;;;4976726;28;20426;-80
2022/04/23 06:41:10;;;;;;;18.58;4.13;;;;;;;;;;4976561;28;20085;-80
2022/04/23 06:43:36;;;;;;;20.35;4.03;;;;;;;;;;4976547;28;20081;-80
2022/04/23 06:46:02;;;;;;;24.50;4.70;;;;;;;;;;4976561;28;20031;-80
2022/04/23 06:48:28;;;;;;;16.42;3.72;;;;;;;;;;4975925;28;20101;-80
2022/04/23 06:50:54;;;;;;;20.60;3.45;;;;;;;;;;4990554;28;20538;-80
2022/04/23 06:53:20;;;;;;;19.63;4.25;;;;;;;;;;4995763;28;20076;-80
2022/04/23 06:55:46;;;;;;;19.67;3.22;;;;;;;;;;4995539;28;20072;-80
2022/04/23 06:58:12;;;;;;;17.25;4.20;;;;;;;;;;4995754;28;20378;-79
2022/04/23 07:00:40;;;;;;;20.08;3.88;;;;;;;;;;4995155;28;20026;-80
2022/04/23 07:03:06;;;;;;;18.65;3.40;;;;;;;;;;4988483;28;20038;-81
2022/04/23 07:05:32;;;;;;;22.95;3.70;;;;;;;;;;4991668;28;20442;-79
2022/04/23 07:07:59;;;;;;;16.50;3.50;;;;;;;;;;4995420;28;20514;-80
2022/04/23 07:10:29;;;;;;;20.27;3.35;;;;;;;;;;4995413;28;20033;-80
2022/04/23 07:12:55;;;;;;;18.00;3.45;;;;;;;;;;4974639;28;20030;-80
2022/04/23 07:15:24;;;;;;;28.60;4.43;;;;;;;;;;4975939;28;20026;-80
2022/04/23 07:17:50;;;;;;;15.95;3.47;;;;;;;;;;4986514;28;20613;-79
2022/04/23 07:20:17;;;;;;;16.65;3.30;;;;;;;;;;4995447;28;20026;-80
2022/04/23 07:24:02;;;;;;;16.33;3.20;;;;;;;;;;4995004;28;20034;-80
2022/04/23 07:25:29;;;;;;;20.25;3.92;;;;;;;;;;4994931;28;20031;-79
2022/04/23 07:27:56;;;;;;;21.35;3.50;;;;;;;;;;4995262;28;20037;-80
2022/04/23 07:30:22;;;;;;;19.90;3.90;;;;;;;;;;4994638;28;20494;-79
2022/04/23 07:32:48;;;;;;;19.98;3.50;;;;;;;;;;4994923;28;20073;-79
2022/04/23 07:38:10;;;;;;;17.70;3.53;;;;;;;;;;4994702;28;20097;-79
2022/04/23 07:40:40;;;;;;;19.60;4.00;;;;;;;;;;4994770;28;20027;-78
2022/04/23 07:43:10;;;;;;;19.85;3.88;;;;;;;;;;4993772;28;20023;-80
2022/04/23 07:45:37;;;;;;;19.88;3.35;;;;;;;;;;4994802;28;20092;-81
2022/04/23 07:48:04;;;;;;;21.88;4.32;;;;;;;;;;4989352;28;20062;-81
2022/04/23 07:50:30;;;;;;;21.02;3.75;;;;;;;;;;4975313;28;20026;-77
2022/04/23 07:52:57;;;;;;;19.38;4.30;;;;;;;;;;4991345;28;20022;-81
2022/04/23 07:55:23;;;;;;;13.75;2.75;;;;;;;;;;4994559;28;20014;-83
2022/04/23 07:57:49;;;;;;;23.85;4.80;;;;;;;;;;5017699;28;20119;-80
2022/04/23 08:00:16;;;;;;;19.42;3.83;;;;;;;;;;4993692;28;20116;-80
2022/04/23 08:02:42;;;;;;;21.63;4.25;;;;;;;;;;4993826;28;20084;-80
2022/04/23 08:05:10;;;;;;;17.98;4.15;;;;;;;;;;4993064;28;20050;-79
2022/04/23 08:07:39;;;;;;;17.15;3.85;;;;;;;;;;5013138;28;20100;-80
2022/04/23 08:10:05;;;;;;;20.02;3.47;;;;;;;;;;4993739;28;20108;-83
2022/04/23 08:12:35;;;;;;;15.07;3.42;;;;;;;;;;4993804;28;20405;-80
2022/04/23 08:15:01;;;;;;;21.77;4.55;;;;;;;;;;4993010;28;20525;-81
2022/04/23 08:17:27;;;;;;;13.93;4.10;;;;;;;;;;4993572;28;20055;-79
2022/04/23 08:19:53;;;;;;;21.50;4.25;;;;;;;;;;4993330;28;20033;-81
2022/04/23 08:22:19;;;;;;;22.42;4.45;;;;;;;;;;4993683;28;20406;-80
2022/04/23 08:24:45;;;;;;;16.73;3.42;;;;;;;;;;4993039;28;20026;-80
2022/04/23 08:27:11;;;;;;;20.00;4.40;;;;;;;;;;4993593;28;20440;-80
2022/04/23 08:32:21;;;;;;;20.33;4.18;;;;;;;;;;4993324;28;20497;-82
2022/04/23 08:34:47;;;;;;;21.90;4.00;;;;;;;;;;4992582;28;20026;-82
2022/04/23 08:37:13;;;;;;;22.17;3.80;;;;;;;;;;4992373;28;20050;-82
2022/04/23 08:39:42;;;;;;;19.92;4.30;;;;;;;;;;4993222;28;20402;-81
2022/04/23 08:42:09;;;;;;;19.88;3.85;;;;;;;;;;4992222;28;20023;-81
2022/04/23 08:44:35;;;;;;;27.45;4.95;;;;;;;;;;4992619;28;20014;-81
2022/04/23 08:47:01;;;;;;;18.92;4.22;;;;;;;;;;4992568;28;20101;-81
2022/04/23 08:49:30;;;;;;;15.75;4.10;;;;;;;;;;4992940;28;20053;-81
2022/04/23 08:51:59;;;;;;;20.52;3.75;;;;;;;;;;4992023;28;20033;-80
2022/04/23 08:54:26;;;;;;;18.52;4.88;;;;;;;;;;4990214;28;20050;-81
2022/04/23 08:56:52;;;;;;;19.40;4.40;;;;;;;;;;4990889;28;20023;-81
2022/04/23 08:59:20;;;;;;;22.13;4.10;;;;;;;;;;4992627;28;20654;-80
2022/04/23 09:01:46;;;;;;;17.60;3.30;;;;;;;;;;4992665;28;20033;-82
2022/04/23 09:04:12;;;;;;;24.08;4.53;;;;;;;;;;4992623;28;20030;-80
2022/04/23 09:06:40;;;;;;;20.30;4.28;;;;;;;;;;4988906;28;20561;-80
2022/04/23 09:09:17;;;;;;;21.15;3.95;;;;;;;;;;4987984;28;20045;-80
2022/04/23 09:11:50;;;;;;;17.55;3.90;;;;;;;;;;4992924;28;20018;-81
2022/04/23 09:14:29;;;;;;;23.58;4.68;;;;;;;;;;4988850;28;20109;-81
2022/04/23 09:25:35;;;;;;;25.17;4.60;;;;;;;;;;4986297;28;20100;-80
2022/04/23 09:28:20;;;;;;;31.70;5.35;;;;;;;;;;5013740;28;20030;-81
2022/04/23 09:30:48;;;;;;;23.33;5.15;;;;;;;;;;5017967;28;20034;-80
2022/04/23 09:33:14;;;;;;;27.17;5.57;;;;;;;;;;5017397;28;20382;-81
2022/04/23 09:35:53;;;;;;;23.20;5.70;;;;;;;;;;4992476;28;20034;-81
2022/04/23 09:38:20;;;;;;;23.60;5.47;;;;;;;;;;4992544;28;20042;-80
2022/04/23 09:40:56;;;;;;;19.55;4.50;;;;;;;;;;4992581;28;20505;-80
2022/04/23 09:43:25;;;;;;;26.45;6.65;;;;;;;;;;4991479;28;20033;-80
2022/04/23 09:46:10;;;;;;;24.52;6.43;;;;;;;;;;4992774;28;20030;-80
2022/04/23 09:48:40;;;;;;;5.50;1.60;;;;;;;;;;4990596;28;20379;-80
2022/04/23 09:51:28;;;;;;;5.78;1.42;;;;;;;;;;4974058;28;20089;-80
2022/04/23 09:53:54;;;;;;;6.55;1.10;;;;;;;;;;4973168;28;20022;-79
2022/04/23 09:56:21;;;;;;;6.15;1.40;;;;;;;;;;4976302;28;20101;-80
2022/04/23 09:58:47;;;;;;;6.93;0.90;;;;;;;;;;4993113;28;20027;-80
2022/04/23 10:01:14;;;;;;;4.95;0.93;;;;;;;;;;5019832;28;20401;-79
2022/04/23 10:03:44;;;;;;;4.22;0.90;;;;;;;;;;4996211;28;20031;-79
2022/04/23 10:06:11;;;;;;;8.45;2.42;;;;;;;;;;4996008;28;20106;-80
2022/04/23 10:08:41;;;;;;;4.82;1.50;;;;;;;;;;4995138;28;20077;-79
2022/04/23 10:11:15;;;;;;;9.23;1.35;;;;;;;;;;4995817;28;20022;-80
2022/04/23 10:13:44;;;;;;;4.35;1.40;;;;;;;;;;4992646;28;20049;-80
2022/04/23 10:16:11;;;;;;;3.67;1.15;;;;;;;;;;4993405;28;20019;-80
2022/04/23 10:18:40;;;;;;;5.78;1.77;;;;;;;;;;4995322;28;20023;-78
2022/04/23 10:21:10;;;;;;;8.05;1.75;;;;;;;;;;4997113;28;20057;-80
2022/04/23 10:23:55;;;;;;;5.22;1.75;;;;;;;;;;5000193;28;20034;-79
2022/04/23 10:26:24;;;;;;;2.03;1.08;;;;;;;;;;4994962;28;20498;-79
2022/04/23 10:28:51;;;;;;;1.77;0.90;;;;;;;;;;4996572;28;20073;-83
2022/04/23 10:31:17;;;;;;;9.40;0.95;;;;;;;;;;5017884;28;20026;-82
2022/04/23 10:33:47;;;;;;;3.10;0.70;;;;;;;;;;4993185;28;20057;-81
2022/04/23 10:36:14;;;;;;;3.00;0.80;;;;;;;;;;4988540;28;20039;-80
2022/04/23 10:38:45;;;;;;;5.82;1.02;;;;;;;;;;4993362;28;20053;-80
2022/04/23 10:41:14;;;;;;;5.88;1.45;;;;;;;;;;4993650;28;20141;-80
2022/04/23 10:43:47;;;;;;;1.60;0.70;;;;;;;;;;4995147;28;20034;-80
2022/04/23 10:46:31;;;;;;;1.58;0.82;;;;;;;;;;4994723;28;20027;-80
2022/04/23 10:49:13;;;;;;;3.35;0.90;;;;;;;;;;4994526;28;20062;-79
2022/04/23 10:51:49;;;;;;;0.95;0.60;;;;;;;;;;4985833;28;20018;-75
2022/04/23 10:54:21;;;;;;;1.38;0.60;;;;;;;;;;4994588;28;20022;-75
2022/04/23 10:56:47;;;;;;;;;;;;;;;;;;4995753;28;20083;-75
2022/04/23 10:59:32;;;;;;;3.60;0.90;;;;;;;;;;4992579;28;19914;-76
2022/04/23 11:02:05;;;;;;;3.97;0.70;;;;;;;;;;4991799;28;20030;-78
2022/04/23 11:04:32;;;;;;;3.30;0.93;;;;;;;;;;4984684;28;20109;-74
2022/04/23 11:12:36;;;;;;;1.33;0.70;;;;;;;;;;4994711;28;20041;-76
2022/04/23 11:15:13;;;;;;;1.52;0.70;;;;;;;;;;4993311;28;20111;-77
2022/04/23 11:17:39;;;;;;;2.95;0.65;;;;;;;;;;4994194;28;20026;-78
2022/04/23 11:20:05;;;;;;;1.80;0.70;;;;;;;;;;4994895;28;20401;-77
2022/04/23 11:22:32;;;;;;;1.77;0.60;;;;;;;;;;4993509;28;20085;-78
2022/04/23 11:24:59;;;;;;;3.67;1.20;;;;;;;;;;4994008;28;20117;-76
2022/04/23 11:27:25;;;;;;;3.97;1.67;;;;;;;;;;4994349;28;20052;-79
2022/04/23 11:29:52;;;;;;;3.60;1.00;;;;;;;;;;4994579;28;20394;-75
2022/04/23 11:32:32;;;;;;;1.58;0.70;;;;;;;;;;4993703;28;20023;-73
2022/04/23 11:35:02;;;;;;;1.48;0.60;;;;;;;;;;4987315;28;20026;-76
2022/04/23 11:37:31;;;;;;;1.42;0.57;;;;;;;;;;4993153;28;20422;-78
2022/04/23 11:40:28;;;;;;;1.83;0.90;;;;;;;;;;4993261;28;20026;-78
2022/04/23 11:42:54;;;;;;;4.28;1.00;;;;;;;;;;4994295;28;20030;-80
2022/04/23 11:45:21;;;;;;;1.35;0.80;;;;;;;;;;4994335;28;20045;-79
2022/04/23 11:47:47;;;;;;;1.30;0.60;;;;;;;;;;4993427;28;20023;-79
2022/04/23 11:50:13;;;;;;;3.13;0.82;;;;;;;;;;4980881;28;20041;-79
2022/04/23 11:52:40;;;;;;;0.90;0.68;;;;;;;;;;4992587;28;20054;-77
2022/04/23 11:55:06;;;;;;;1.63;0.88;;;;;;;;;;4993488;28;20018;-78
2022/04/23 11:57:32;;;;;;;2.45;1.10;;;;;;;;;;4992922;28;20042;-78
2022/04/23 12:00:03;;;;;;;3.40;1.42;;;;;;;;;;4993739;28;20022;-77
2022/04/23 12:02:30;;;;;;;1.50;0.80;;;;;;;;;;4993004;28;20110;-78
2022/04/23 12:04:59;;;;;;;4.18;0.80;;;;;;;;;;4990029;28;20109;-78
2022/04/23 12:07:26;;;;;;;2.05;0.93;;;;;;;;;;4993548;28;20027;-78
2022/04/23 12:09:53;;;;;;;1.00;0.77;;;;;;;;;;4991714;28;20375;-78
2022/04/23 12:12:20;;;;;;;1.63;0.90;;;;;;;;;;5017925;28;20426;-78
2022/04/23 12:14:47;;;;;;;4.65;3.05;;;;;;;;;;4993718;28;20138;-76
2022/04/23 12:17:21;;;;;;;3.35;1.23;;;;;;;;;;4990979;28;20050;-77
2022/04/23 12:19:51;;;;;;;8.27;4.38;;;;;;;;;;4991963;28;20117;-78
2022/04/23 12:22:23;;;;;;;3.22;1.05;;;;;;;;;;4991247;28;20025;-78
2022/04/23 12:24:49;;;;;;;2.30;1.20;;;;;;;;;;4992211;28;20018;-77
2022/04/23 12:27:17;;;;;;;3.95;1.77;;;;;;;;;;4993846;28;20451;-77
2022/04/23 12:40:51;;;;;;;2.10;0.88;;;;;;;;;;4993218;28;20066;-77
2022/04/23 12:43:20;;;;;;;2.08;1.10;;;;;;;;;;4993425;28;20030;-76
2022/04/23 12:45:47;;;;;;;1.75;0.93;;;;;;;;;;4992925;28;20030;-79
2022/04/23 12:48:14;;;;;;;3.08;1.08;;;;;;;;;;4992745;28;20026;-76
2022/04/23 12:50:41;;;;;;;1.48;0.82;;;;;;;;;;4991025;28;20088;-78
2022/04/23 12:53:07;;;;;;;1.52;1.00;;;;;;;;;;4992787;28;20033;-78
2022/04/23 12:55:49;;;;;;;1.52;0.90;;;;;;;;;;4991879;28;20034;-78
2022/04/23 12:58:16;;;;;;;1.98;0.90;;;;;;;;;;4992255;28;20408;-78
2022/04/23 13:00:42;;;;;;;1.75;1.00;;;;;;;;;;4992963;28;20034;-78
2022/04/23 13:03:35;;;;;;;3.20;0.93;;;;;;;;;;4992751;28;20077;-78
2022/04/23 13:06:01;;;;;;;;;;;;;;;;;;4986705;28;20044;-78
2022/04/23 13:11:24;;;;;;;3.03;1.20;;;;;;;;;;4992383;28;20077;-77
2022/04/23 13:13:54;;;;;;;2.63;1.10;;;;;;;;;;4989450;28;20045;-76
2022/04/23 13:16:20;;;;;;;2.03;1.02;;;;;;;;;;4990384;28;20050;-78
2022/04/23 13:18:46;;;;;;;1.65;0.93;;;;;;;;;;4989438;28;20098;-77
2022/04/23 13:21:13;;;;;;;1.63;0.80;;;;;;;;;;4992504;28;20101;-77
2022/04/23 13:23:39;;;;;;;2.55;0.93;;;;;;;;;;4992358;28;20105;-78
2022/04/23 13:26:05;;;;;;;1.27;0.82;;;;;;;;;;4992102;28;20027;-78
2022/04/23 13:28:31;;;;;;;2.65;1.33;;;;;;;;;;4987940;28;20080;-78
2022/04/23 13:30:57;;;;;;;2.83;1.35;;;;;;;;;;4996073;28;20029;-77
2022/04/23 13:33:24;;;;;;;4.70;0.80;;;;;;;;;;5014397;28;20076;-78
2022/04/23 13:35:50;;;;;;;1.98;1.00;;;;;;;;;;4991202;28;20064;-78
2022/04/23 13:38:16;;;;;;;2.30;1.10;;;;;;;;;;4996286;28;20030;-77
2022/04/23 13:40:44;;;;;;;2.17;1.25;;;;;;;;;;5016621;28;20030;-79
2022/04/23 13:43:10;;;;;;;2.50;1.35;;;;;;;;;;4993551;28;20030;-76
2022/04/23 13:45:36;;;;;;;3.75;1.50;;;;;;;;;;4996340;28;20080;-77
2022/04/23 13:48:04;;;;;;;3.55;1.60;;;;;;;;;;4994954;28;20027;-78
2022/04/23 13:50:31;;;;;;;3.42;1.63;;;;;;;;;;4991536;28;20038;-77
2022/04/23 13:52:57;;;;;;;4.90;1.77;;;;;;;;;;4995625;28;20037;-75
2022/04/23 13:55:23;;;;;;;5.28;2.38;;;;;;;;;;4995383;28;20046;-77
2022/04/23 13:57:49;;;;;;;5.07;2.58;;;;;;;;;;4995731;28;20101;-76
2022/04/23 14:00:15;;;;;;;6.53;3.17;;;;;;;;;;4995206;28;20030;-77
2022/04/23 14:10:55;;;;;;;3.33;1.98;;;;;;;;;;4990577;28;20037;-77
2022/04/23 14:13:22;;;;;;;2.05;1.25;;;;;;;;;;4995600;28;20417;-77
2022/04/23 14:15:48;;;;;;;1.52;0.93;;;;;;;;;;4995815;28;20486;-77
2022/04/23 14:18:14;;;;;;;2.25;0.90;;;;;;;;;;4995763;28;20037;-78
2022/04/23 14:20:40;;;;;;;2.53;1.00;;;;;;;;;;4995599;28;20034;-75
2022/04/23 14:23:06;;;;;;;2.85;1.30;;;;;;;;;;4996168;28;20029;-75
2022/04/23 14:25:36;;;;;;;2.40;1.20;;;;;;;;;;4994470;28;20081;-78
2022/04/23 14:28:03;;;;;;;1.30;0.80;;;;;;;;;;4995316;28;20022;-77
2022/04/23 14:30:29;;;;;;;1.95;0.73;;;;;;;;;;4993064;28;20053;-78
2022/04/23 14:32:55;;;;;;;1.20;0.73;;;;;;;;;;4992904;28;20388;-78
2022/04/23 14:35:21;;;;;;;1.98;1.13;;;;;;;;;;4993314;28;20101;-77
2022/04/23 14:37:51;;;;;;;3.15;1.45;;;;;;;;;;4990965;28;20042;-77
2022/04/23 14:40:17;;;;;;;3.38;1.98;;;;;;;;;;4993577;28;20026;-77
2022/04/23 14:42:43;;;;;;;4.32;0.93;;;;;;;;;;4993784;28;20041;-78
2022/04/23 14:45:10;;;;;;;1.13;0.80;;;;;;;;;;4994275;28;20031;-77
2022/04/23 14:47:36;;;;;;;1.75;0.80;;;;;;;;;;4993492;28;20106;-76
2022/04/23 14:50:02;;;;;;;2.53;1.00;;;;;;;;;;4993489;28;20084;-76
2022/04/23 14:55:13;;;;;;;2.35;0.90;;;;;;;;;;4988162;28;20037;-77
2022/04/23 14:57:39;;;;;;;2.55;0.90;;;;;;;;;;4993162;28;20031;-77
2022/04/23 15:00:05;;;;;;;1.92;0.70;;;;;;;;;;4993756;28;20042;-76
2022/04/23 15:02:31;;;;;;;1.05;0.60;;;;;;;;;;4993249;28;20032;-78
2022/04/23 15:04:57;;;;;;;2.78;0.82;;;;;;;;;;4994082;28;20148;-76
2022/04/23 15:07:26;;;;;;;2.28;0.70;;;;;;;;;;4993706;28;20022;-77
2022/04/23 15:09:52;;;;;;;1.05;0.80;;;;;;;;;;4991217;28;20034;-74
2022/04/23 15:12:18;;;;;;;2.65;1.20;;;;;;;;;;4993984;28;20057;-78
2022/04/23 15:14:45;;;;;;;1.83;1.10;;;;;;;;;;4987149;28;20062;-76
2022/04/23 15:17:11;;;;;;;2.28;1.20;;;;;;;;;;4992763;28;20069;-76
2022/04/23 15:19:38;;;;;;;2.92;1.60;;;;;;;;;;4989283;28;20038;-74
2022/04/23 15:22:04;;;;;;;2.38;1.40;;;;;;;;;;4992424;28;20031;-76
2022/04/23 15:24:30;;;;;;;3.40;1.60;;;;;;;;;;4992858;28;20038;-76
2022/04/23 15:26:56;;;;;;;2.65;1.38;;;;;;;;;;4992305;28;20038;-76